Siegerland, Germania

11:36 PM CEST die 22o August, anno 2014 (GMT +0200)
im Siegerland | Change Station
CLOSE
Current Station
Personal Weather Stations
Location: Siegen, NORDRHEIN-WESTFALEN
Elevation: 1053 ft
Nearby Weather Stations

Elev 1053 ft 50.86 °N, 7.97 °E | Updated 36 minutes ago

Pluvia
Pluvia
56.8 °F
Feels Like 56.8 °F
N
0.0
Ventus Variabilis Ventus from Aquilo
Gusts 0.0 mph

Hodie
High -- | Low -- °F
--% Chance of Precip.
Yesterday
High -- | Low -- °F
Precip. -- in
6:25 AM 8:34 PM
Waning Crescent, 6% visible
Pressio 29.94 in
Visibilitas 6.2 milia passuum
Clouds Plerumque Nubila 16000 ft
Frigus in quo Ros apparet 53 °F
Umor 86%
Rainfall 0.11 in
Snow Depth Not available.
UV 0 out of 12
Pollen Not available.
Air Quality Not available.
Flu Activity Not available.
METAR ETOU 222058Z AUTO 29001KT 9999 BKN160 14/09 A2993 RMK AO2 SLP136 T01380090 51007

More Conditions Fewer Conditions

Pressio 29.94 in
Visibilitas 6.2 milia passuum
Clouds Plerumque Nubila 16000 ft
Frigus in quo Ros apparet 53 °F
Umor 86%
Rainfall 0.11 in
Snow Depth Not available.
UV 0 out of 12
Pollen Not available.
Air Quality Not available.
Flu Activity Not available.
METAR ETOU 222058Z AUTO 29001KT 9999 BKN160 14/09 A2993 RMK AO2 SLP136 T01380090 51007

More Conditions Fewer Conditions

10-Day Weather Forecast

Almanac

Astronomy

Aug. 22, 2014 Rise Set
Actual Time 6:25 AM CEST 8:34 PM CEST
Civil Twilight 5:50 AM CEST 9:09 PM CEST
Nautical Twilight 5:05 AM CEST 9:54 PM CEST
Astronomical Twilight 4:14 AM CEST 10:44 PM CEST
Moon 3:25 AM CEST 6:39 PM CEST
Length Of Visible Light 15h 19m
Length of Day
14h 08m
Tomorrow will be 3m 36s shorter.
Waning Crescent, 6% of the Moon is Illuminated
Hodie
Waning Crescent
Aug 25
New
Sep 2
First Quarter
Sep 8
Full
Sep 15
Last Quarter

Today's Extremes

Country Highs Country Lows

Community

WunderPhotos

Upload Photos

1,746,259 photos uploaded!

Nearby

Snow Depth

Not available.

Earthquake Activity

City Distance Mag. Time & Date
No recent earthquake activity has been reported nearby.
Minimum magnitude displayed is 2.5.

Coastal Water Temperatures

Locus Calor
No Stations Reporting

Nearby Weather Stations